sensor_id;sensor_type;location;lat;lon;timestamp;P1;durP1;ratioP1;P2;durP2;ratioP2
65996;SDS011;52765;52.258;21.052;2024-03-06T00:01:25;69.78;;;29.73;;
65996;SDS011;52765;52.258;21.052;2024-03-06T00:05:26;70.88;;;30.65;;
65996;SDS011;52765;52.258;21.052;2024-03-06T00:09:26;70.25;;;28.63;;
65996;SDS011;52765;52.258;21.052;2024-03-06T00:13:27;70.15;;;32.40;;
65996;SDS011;52765;52.258;21.052;2024-03-06T00:17:28;71.43;;;32.33;;
65996;SDS011;52765;52.258;21.052;2024-03-06T00:21:28;67.05;;;30.35;;
65996;SDS011;52765;52.258;21.052;2024-03-06T00:25:29;69.78;;;30.27;;
65996;SDS011;52765;52.258;21.052;2024-03-06T00:29:30;67.93;;;30.50;;
65996;SDS011;52765;52.258;21.052;2024-03-06T00:33:32;71.70;;;30.85;;
65996;SDS011;52765;52.258;21.052;2024-03-06T00:37:32;65.88;;;30.33;;
65996;SDS011;52765;52.258;21.052;2024-03-06T00:41:34;71.90;;;31.67;;
65996;SDS011;52765;52.258;21.052;2024-03-06T00:45:35;72.38;;;32.20;;
65996;SDS011;52765;52.258;21.052;2024-03-06T00:49:36;73.38;;;31.02;;
65996;SDS011;52765;52.258;21.052;2024-03-06T00:53:38;63.95;;;29.52;;
65996;SDS011;52765;52.258;21.052;2024-03-06T00:57:39;63.50;;;29.60;;
65996;SDS011;52765;52.258;21.052;2024-03-06T01:01:39;61.75;;;29.38;;
65996;SDS011;52765;52.258;21.052;2024-03-06T01:05:40;56.47;;;27.58;;
65996;SDS011;52765;52.258;21.052;2024-03-06T01:09:40;60.30;;;29.67;;
65996;SDS011;52765;52.258;21.052;2024-03-06T01:13:49;62.83;;;29.33;;
65996;SDS011;52765;52.258;21.052;2024-03-06T01:17:50;58.42;;;28.02;;
65996;SDS011;52765;52.258;21.052;2024-03-06T01:21:50;67.05;;;26.92;;
65996;SDS011;52765;52.258;21.052;2024-03-06T01:25:51;61.03;;;27.92;;
65996;SDS011;52765;52.258;21.052;2024-03-06T01:29:51;54.25;;;25.98;;
65996;SDS011;52765;52.258;21.052;2024-03-06T01:33:52;51.50;;;26.60;;
65996;SDS011;52765;52.258;21.052;2024-03-06T01:37:52;51.55;;;25.48;;
65996;SDS011;52765;52.258;21.052;2024-03-06T01:41:53;53.00;;;25.73;;
65996;SDS011;52765;52.258;21.052;2024-03-06T01:45:53;49.53;;;24.80;;
65996;SDS011;52765;52.258;21.052;2024-03-06T01:49:54;46.72;;;22.60;;
65996;SDS011;52765;52.258;21.052;2024-03-06T01:53:54;41.90;;;22.15;;
65996;SDS011;52765;52.258;21.052;2024-03-06T01:57:55;42.03;;;21.75;;
65996;SDS011;52765;52.258;21.052;2024-03-06T02:01:56;43.90;;;20.70;;
65996;SDS011;52765;52.258;21.052;2024-03-06T02:05:57;39.75;;;19.98;;
65996;SDS011;52765;52.258;21.052;2024-03-06T02:10:00;36.90;;;19.00;;
65996;SDS011;52765;52.258;21.052;2024-03-06T02:14:01;37.30;;;17.88;;
65996;SDS011;52765;52.258;21.052;2024-03-06T02:18:04;34.40;;;18.02;;
65996;SDS011;52765;52.258;21.052;2024-03-06T02:22:08;34.53;;;18.17;;
65996;SDS011;52765;52.258;21.052;2024-03-06T02:26:10;35.13;;;18.40;;
65996;SDS011;52765;52.258;21.052;2024-03-06T02:30:10;34.33;;;17.77;;
65996;SDS011;52765;52.258;21.052;2024-03-06T02:34:11;35.58;;;18.42;;
65996;SDS011;52765;52.258;21.052;2024-03-06T02:38:12;36.10;;;17.52;;
65996;SDS011;52765;52.258;21.052;2024-03-06T02:42:12;31.25;;;17.52;;
65996;SDS011;52765;52.258;21.052;2024-03-06T02:46:13;32.63;;;17.77;;
65996;SDS011;52765;52.258;21.052;2024-03-06T02:50:14;38.20;;;17.35;;
65996;SDS011;52765;52.258;21.052;2024-03-06T02:54:15;33.47;;;16.83;;
65996;SDS011;52765;52.258;21.052;2024-03-06T02:58:15;28.23;;;15.45;;
65996;SDS011;52765;52.258;21.052;2024-03-06T03:02:19;32.50;;;16.33;;
65996;SDS011;52765;52.258;21.052;2024-03-06T03:06:19;30.40;;;16.95;;
65996;SDS011;52765;52.258;21.052;2024-03-06T03:10:20;30.50;;;16.45;;
65996;SDS011;52765;52.258;21.052;2024-03-06T03:14:20;37.90;;;17.17;;
65996;SDS011;52765;52.258;21.052;2024-03-06T03:18:21;29.40;;;16.70;;
65996;SDS011;52765;52.258;21.052;2024-03-06T03:22:21;28.98;;;16.25;;
65996;SDS011;52765;52.258;21.052;2024-03-06T03:26:22;33.65;;;16.67;;
65996;SDS011;52765;52.258;21.052;2024-03-06T03:30:22;35.38;;;15.98;;
65996;SDS011;52765;52.258;21.052;2024-03-06T03:34:23;34.03;;;16.73;;
65996;SDS011;52765;52.258;21.052;2024-03-06T03:38:23;35.15;;;15.50;;
65996;SDS011;52765;52.258;21.052;2024-03-06T03:42:24;33.50;;;15.88;;
65996;SDS011;52765;52.258;21.052;2024-03-06T03:46:24;32.92;;;15.95;;
65996;SDS011;52765;52.258;21.052;2024-03-06T03:50:25;27.70;;;14.98;;
65996;SDS011;52765;52.258;21.052;2024-03-06T03:54:25;32.38;;;15.15;;
65996;SDS011;52765;52.258;21.052;2024-03-06T03:58:26;29.02;;;15.77;;
65996;SDS011;52765;52.258;21.052;2024-03-06T04:02:27;30.40;;;15.63;;
65996;SDS011;52765;52.258;21.052;2024-03-06T04:06:27;29.90;;;15.35;;
65996;SDS011;52765;52.258;21.052;2024-03-06T04:10:27;32.47;;;16.40;;
65996;SDS011;52765;52.258;21.052;2024-03-06T04:14:28;34.20;;;15.80;;
65996;SDS011;52765;52.258;21.052;2024-03-06T04:18:32;32.63;;;17.08;;
65996;SDS011;52765;52.258;21.052;2024-03-06T04:22:33;31.83;;;17.77;;
65996;SDS011;52765;52.258;21.052;2024-03-06T04:26:34;29.50;;;15.57;;
65996;SDS011;52765;52.258;21.052;2024-03-06T04:30:34;30.58;;;15.65;;
65996;SDS011;52765;52.258;21.052;2024-03-06T04:34:35;30.02;;;15.25;;
65996;SDS011;52765;52.258;21.052;2024-03-06T04:38:35;30.90;;;15.60;;
65996;SDS011;52765;52.258;21.052;2024-03-06T04:42:35;33.65;;;16.60;;
65996;SDS011;52765;52.258;21.052;2024-03-06T04:46:36;32.60;;;15.32;;
65996;SDS011;52765;52.258;21.052;2024-03-06T04:50:36;32.08;;;15.32;;
65996;SDS011;52765;52.258;21.052;2024-03-06T04:54:37;32.67;;;15.95;;
65996;SDS011;52765;52.258;21.052;2024-03-06T04:58:37;31.55;;;16.77;;
65996;SDS011;52765;52.258;21.052;2024-03-06T05:02:38;33.20;;;15.38;;
65996;SDS011;52765;52.258;21.052;2024-03-06T05:06:39;33.97;;;15.82;;
65996;SDS011;52765;52.258;21.052;2024-03-06T05:10:40;30.02;;;16.15;;
65996;SDS011;52765;52.258;21.052;2024-03-06T05:14:40;33.40;;;15.82;;
65996;SDS011;52765;52.258;21.052;2024-03-06T05:18:41;30.80;;;16.67;;
65996;SDS011;52765;52.258;21.052;2024-03-06T05:22:41;32.42;;;15.23;;
65996;SDS011;52765;52.258;21.052;2024-03-06T05:26:42;35.65;;;16.13;;
65996;SDS011;52765;52.258;21.052;2024-03-06T05:30:42;34.72;;;15.88;;
65996;SDS011;52765;52.258;21.052;2024-03-06T05:34:42;33.53;;;15.85;;
65996;SDS011;52765;52.258;21.052;2024-03-06T05:38:44;28.38;;;14.38;;
65996;SDS011;52765;52.258;21.052;2024-03-06T05:42:45;31.08;;;14.27;;
65996;SDS011;52765;52.258;21.052;2024-03-06T05:46:46;29.55;;;15.23;;
65996;SDS011;52765;52.258;21.052;2024-03-06T05:50:47;29.25;;;14.25;;
65996;SDS011;52765;52.258;21.052;2024-03-06T05:54:47;27.42;;;13.95;;
65996;SDS011;52765;52.258;21.052;2024-03-06T05:58:48;31.65;;;15.90;;
65996;SDS011;52765;52.258;21.052;2024-03-06T06:02:49;28.45;;;14.80;;
65996;SDS011;52765;52.258;21.052;2024-03-06T06:06:49;30.77;;;14.23;;
65996;SDS011;52765;52.258;21.052;2024-03-06T06:10:50;28.00;;;13.27;;
65996;SDS011;52765;52.258;21.052;2024-03-06T06:14:54;24.77;;;12.60;;
65996;SDS011;52765;52.258;21.052;2024-03-06T06:18:55;27.63;;;12.77;;
65996;SDS011;52765;52.258;21.052;2024-03-06T06:22:55;26.23;;;12.90;;
65996;SDS011;52765;52.258;21.052;2024-03-06T06:26:56;27.98;;;12.07;;
65996;SDS011;52765;52.258;21.052;2024-03-06T06:30:56;27.17;;;12.48;;
65996;SDS011;52765;52.258;21.052;2024-03-06T06:34:57;22.95;;;11.43;;
65996;SDS011;52765;52.258;21.052;2024-03-06T06:38:58;25.65;;;11.98;;
65996;SDS011;52765;52.258;21.052;2024-03-06T06:42:59;29.98;;;12.60;;
65996;SDS011;52765;52.258;21.052;2024-03-06T06:47:00;23.25;;;11.63;;
65996;SDS011;52765;52.258;21.052;2024-03-06T06:51:00;19.42;;;11.10;;
65996;SDS011;52765;52.258;21.052;2024-03-06T06:55:04;27.05;;;11.80;;
65996;SDS011;52765;52.258;21.052;2024-03-06T06:59:05;21.50;;;11.48;;
65996;SDS011;52765;52.258;21.052;2024-03-06T07:03:05;29.77;;;12.38;;
65996;SDS011;52765;52.258;21.052;2024-03-06T07:07:07;26.88;;;12.40;;
65996;SDS011;52765;52.258;21.052;2024-03-06T07:11:07;22.55;;;10.63;;
65996;SDS011;52765;52.258;21.052;2024-03-06T07:15:08;22.33;;;11.15;;
65996;SDS011;52765;52.258;21.052;2024-03-06T07:19:08;28.45;;;11.63;;
65996;SDS011;52765;52.258;21.052;2024-03-06T07:23:09;26.80;;;11.43;;
65996;SDS011;52765;52.258;21.052;2024-03-06T07:27:09;24.42;;;11.40;;
65996;SDS011;52765;52.258;21.052;2024-03-06T07:31:10;26.42;;;11.63;;
65996;SDS011;52765;52.258;21.052;2024-03-06T07:35:10;22.15;;;10.15;;
65996;SDS011;52765;52.258;21.052;2024-03-06T07:39:12;24.52;;;10.70;;
65996;SDS011;52765;52.258;21.052;2024-03-06T07:43:13;23.38;;;10.63;;
65996;SDS011;52765;52.258;21.052;2024-03-06T07:47:14;26.38;;;11.35;;
65996;SDS011;52765;52.258;21.052;2024-03-06T07:51:15;22.20;;;9.75;;
65996;SDS011;52765;52.258;21.052;2024-03-06T07:55:15;20.75;;;10.75;;
65996;SDS011;52765;52.258;21.052;2024-03-06T07:59:15;21.45;;;10.63;;
65996;SDS011;52765;52.258;21.052;2024-03-06T08:03:18;25.98;;;11.98;;
65996;SDS011;52765;52.258;21.052;2024-03-06T08:07:18;22.75;;;10.68;;
65996;SDS011;52765;52.258;21.052;2024-03-06T08:11:19;22.30;;;11.30;;
65996;SDS011;52765;52.258;21.052;2024-03-06T08:15:21;23.05;;;11.40;;
65996;SDS011;52765;52.258;21.052;2024-03-06T08:19:22;26.55;;;12.38;;
65996;SDS011;52765;52.258;21.052;2024-03-06T08:23:25;24.67;;;12.10;;
65996;SDS011;52765;52.258;21.052;2024-03-06T08:27:25;22.42;;;11.05;;
65996;SDS011;52765;52.258;21.052;2024-03-06T08:31:26;25.08;;;12.32;;
65996;SDS011;52765;52.258;21.052;2024-03-06T08:35:26;30.60;;;12.35;;
65996;SDS011;52765;52.258;21.052;2024-03-06T08:39:27;23.40;;;11.60;;
65996;SDS011;52765;52.258;21.052;2024-03-06T08:43:27;26.08;;;11.63;;
65996;SDS011;52765;52.258;21.052;2024-03-06T08:47:27;23.88;;;10.90;;
65996;SDS011;52765;52.258;21.052;2024-03-06T08:51:28;30.58;;;12.82;;
65996;SDS011;52765;52.258;21.052;2024-03-06T08:55:28;62.92;;;24.45;;
65996;SDS011;52765;52.258;21.052;2024-03-06T08:59:29;25.65;;;11.30;;
65996;SDS011;52765;52.258;21.052;2024-03-06T09:03:30;24.00;;;11.73;;
65996;SDS011;52765;52.258;21.052;2024-03-06T09:07:31;24.15;;;11.15;;
65996;SDS011;52765;52.258;21.052;2024-03-06T09:11:38;23.20;;;11.32;;
65996;SDS011;52765;52.258;21.052;2024-03-06T09:15:38;19.42;;;10.52;;
65996;SDS011;52765;52.258;21.052;2024-03-06T09:19:39;21.15;;;10.02;;
65996;SDS011;52765;52.258;21.052;2024-03-06T09:23:39;25.75;;;10.55;;
65996;SDS011;52765;52.258;21.052;2024-03-06T09:27:40;25.05;;;10.77;;
65996;SDS011;52765;52.258;21.052;2024-03-06T09:31:41;26.15;;;10.90;;
65996;SDS011;52765;52.258;21.052;2024-03-06T09:35:43;21.67;;;10.75;;
65996;SDS011;52765;52.258;21.052;2024-03-06T09:39:46;24.45;;;10.77;;
65996;SDS011;52765;52.258;21.052;2024-03-06T09:43:47;25.35;;;10.68;;
65996;SDS011;52765;52.258;21.052;2024-03-06T09:47:49;26.77;;;11.45;;
65996;SDS011;52765;52.258;21.052;2024-03-06T09:51:51;19.33;;;10.32;;
65996;SDS011;52765;52.258;21.052;2024-03-06T09:55:56;29.08;;;10.73;;
65996;SDS011;52765;52.258;21.052;2024-03-06T09:59:57;26.92;;;11.07;;
65996;SDS011;52765;52.258;21.052;2024-03-06T10:03:58;27.13;;;10.85;;
65996;SDS011;52765;52.258;21.052;2024-03-06T10:08:00;30.00;;;12.13;;
65996;SDS011;52765;52.258;21.052;2024-03-06T10:12:01;24.05;;;10.82;;
65996;SDS011;52765;52.258;21.052;2024-03-06T10:16:04;27.85;;;11.20;;
65996;SDS011;52765;52.258;21.052;2024-03-06T10:24:22;31.00;;;11.52;;
65996;SDS011;52765;52.258;21.052;2024-03-06T10:28:24;21.77;;;10.05;;
65996;SDS011;52765;52.258;21.052;2024-03-06T10:32:31;23.73;;;11.18;;
65996;SDS011;52765;52.258;21.052;2024-03-06T10:36:32;26.38;;;11.38;;
65996;SDS011;52765;52.258;21.052;2024-03-06T10:40:36;26.25;;;11.40;;
65996;SDS011;52765;52.258;21.052;2024-03-06T10:44:38;26.35;;;10.65;;
65996;SDS011;52765;52.258;21.052;2024-03-06T10:48:53;20.73;;;9.70;;
65996;SDS011;52765;52.258;21.052;2024-03-06T10:52:58;21.95;;;9.85;;
65996;SDS011;52765;52.258;21.052;2024-03-06T10:57:00;20.27;;;9.60;;
65996;SDS011;52765;52.258;21.052;2024-03-06T11:01:02;23.80;;;9.32;;
65996;SDS011;52765;52.258;21.052;2024-03-06T11:05:07;21.58;;;8.73;;
65996;SDS011;52765;52.258;21.052;2024-03-06T11:09:09;18.67;;;8.27;;
65996;SDS011;52765;52.258;21.052;2024-03-06T11:13:21;23.17;;;9.32;;
65996;SDS011;52765;52.258;21.052;2024-03-06T11:17:25;21.00;;;8.30;;
65996;SDS011;52765;52.258;21.052;2024-03-06T11:21:29;18.23;;;7.68;;
65996;SDS011;52765;52.258;21.052;2024-03-06T11:26:04;19.13;;;7.78;;
65996;SDS011;52765;52.258;21.052;2024-03-06T11:30:06;15.20;;;6.80;;
65996;SDS011;52765;52.258;21.052;2024-03-06T11:34:14;18.77;;;7.07;;
65996;SDS011;52765;52.258;21.052;2024-03-06T11:38:16;13.25;;;6.47;;
65996;SDS011;52765;52.258;21.052;2024-03-06T11:42:17;10.48;;;5.30;;
65996;SDS011;52765;52.258;21.052;2024-03-06T11:46:42;15.27;;;6.32;;
65996;SDS011;52765;52.258;21.052;2024-03-06T11:50:48;19.00;;;6.00;;
65996;SDS011;52765;52.258;21.052;2024-03-06T11:54:51;10.27;;;5.53;;
65996;SDS011;52765;52.258;21.052;2024-03-06T11:58:52;12.02;;;5.20;;
65996;SDS011;52765;52.258;21.052;2024-03-06T12:02:53;21.98;;;6.28;;
65996;SDS011;52765;52.258;21.052;2024-03-06T12:06:57;8.90;;;5.15;;
65996;SDS011;52765;52.258;21.052;2024-03-06T12:11:08;10.35;;;5.30;;
65996;SDS011;52765;52.258;21.052;2024-03-06T12:15:09;15.48;;;5.30;;
65996;SDS011;52765;52.258;21.052;2024-03-06T12:19:11;11.02;;;4.55;;
65996;SDS011;52765;52.258;21.052;2024-03-06T12:23:21;13.90;;;5.63;;
65996;SDS011;52765;52.258;21.052;2024-03-06T12:27:31;17.67;;;5.38;;
65996;SDS011;52765;52.258;21.052;2024-03-06T12:31:33;12.70;;;5.15;;
65996;SDS011;52765;52.258;21.052;2024-03-06T12:35:35;11.98;;;5.43;;
65996;SDS011;52765;52.258;21.052;2024-03-06T12:39:37;9.95;;;5.13;;
65996;SDS011;52765;52.258;21.052;2024-03-06T12:43:38;13.00;;;4.90;;
65996;SDS011;52765;52.258;21.052;2024-03-06T12:47:40;13.52;;;5.13;;
65996;SDS011;52765;52.258;21.052;2024-03-06T12:51:45;15.40;;;5.85;;
65996;SDS011;52765;52.258;21.052;2024-03-06T12:55:46;17.45;;;5.20;;
65996;SDS011;52765;52.258;21.052;2024-03-06T12:59:46;15.95;;;5.93;;
65996;SDS011;52765;52.258;21.052;2024-03-06T13:03:47;15.40;;;6.30;;
65996;SDS011;52765;52.258;21.052;2024-03-06T13:07:47;16.83;;;5.88;;
65996;SDS011;52765;52.258;21.052;2024-03-06T13:11:48;16.73;;;6.13;;
65996;SDS011;52765;52.258;21.052;2024-03-06T13:15:48;12.27;;;5.50;;
65996;SDS011;52765;52.258;21.052;2024-03-06T13:19:49;11.68;;;6.00;;
65996;SDS011;52765;52.258;21.052;2024-03-06T13:23:49;17.13;;;6.45;;
65996;SDS011;52765;52.258;21.052;2024-03-06T13:27:50;14.85;;;5.35;;
65996;SDS011;52765;52.258;21.052;2024-03-06T13:31:52;15.00;;;6.25;;
65996;SDS011;52765;52.258;21.052;2024-03-06T13:35:52;11.75;;;5.68;;
65996;SDS011;52765;52.258;21.052;2024-03-06T13:39:54;12.57;;;7.00;;
65996;SDS011;52765;52.258;21.052;2024-03-06T13:43:58;12.98;;;6.28;;
65996;SDS011;52765;52.258;21.052;2024-03-06T13:47:59;22.50;;;8.13;;
65996;SDS011;52765;52.258;21.052;2024-03-06T13:51:59;20.77;;;6.15;;
65996;SDS011;52765;52.258;21.052;2024-03-06T13:56:00;15.52;;;6.47;;
65996;SDS011;52765;52.258;21.052;2024-03-06T14:00:01;22.83;;;6.20;;
65996;SDS011;52765;52.258;21.052;2024-03-06T14:04:06;16.23;;;6.57;;
65996;SDS011;52765;52.258;21.052;2024-03-06T14:08:06;23.23;;;6.25;;
65996;SDS011;52765;52.258;21.052;2024-03-06T14:12:07;19.63;;;6.50;;
65996;SDS011;52765;52.258;21.052;2024-03-06T14:16:09;18.38;;;7.13;;
65996;SDS011;52765;52.258;21.052;2024-03-06T14:20:10;17.05;;;6.65;;
65996;SDS011;52765;52.258;21.052;2024-03-06T14:28:20;17.73;;;6.97;;
65996;SDS011;52765;52.258;21.052;2024-03-06T14:32:21;17.25;;;7.05;;
65996;SDS011;52765;52.258;21.052;2024-03-06T14:36:21;15.07;;;7.30;;
65996;SDS011;52765;52.258;21.052;2024-03-06T14:40:22;14.85;;;6.85;;
65996;SDS011;52765;52.258;21.052;2024-03-06T14:44:22;17.33;;;6.32;;
65996;SDS011;52765;52.258;21.052;2024-03-06T14:48:23;17.30;;;6.45;;
65996;SDS011;52765;52.258;21.052;2024-03-06T14:52:23;18.98;;;7.35;;
65996;SDS011;52765;52.258;21.052;2024-03-06T14:56:24;18.63;;;6.93;;
65996;SDS011;52765;52.258;21.052;2024-03-06T15:00:24;21.77;;;7.55;;
65996;SDS011;52765;52.258;21.052;2024-03-06T15:04:25;21.52;;;7.03;;
65996;SDS011;52765;52.258;21.052;2024-03-06T15:08:25;25.10;;;8.15;;
65996;SDS011;52765;52.258;21.052;2024-03-06T15:12:27;15.40;;;6.72;;
65996;SDS011;52765;52.258;21.052;2024-03-06T15:16:31;14.93;;;6.63;;
65996;SDS011;52765;52.258;21.052;2024-03-06T15:20:31;20.92;;;6.57;;
65996;SDS011;52765;52.258;21.052;2024-03-06T15:24:33;20.75;;;7.30;;
65996;SDS011;52765;52.258;21.052;2024-03-06T15:28:33;18.70;;;7.07;;
65996;SDS011;52765;52.258;21.052;2024-03-06T15:32:34;15.75;;;7.18;;
65996;SDS011;52765;52.258;21.052;2024-03-06T15:36:35;27.92;;;8.07;;
65996;SDS011;52765;52.258;21.052;2024-03-06T15:40:37;14.55;;;6.47;;
65996;SDS011;52765;52.258;21.052;2024-03-06T15:44:37;22.98;;;8.40;;
65996;SDS011;52765;52.258;21.052;2024-03-06T15:48:37;15.85;;;7.03;;
65996;SDS011;52765;52.258;21.052;2024-03-06T15:52:38;23.35;;;6.95;;
65996;SDS011;52765;52.258;21.052;2024-03-06T15:56:39;15.35;;;6.65;;
65996;SDS011;52765;52.258;21.052;2024-03-06T16:00:40;13.38;;;7.05;;
65996;SDS011;52765;52.258;21.052;2024-03-06T16:04:40;16.63;;;7.15;;
65996;SDS011;52765;52.258;21.052;2024-03-06T16:08:41;18.58;;;7.40;;
65996;SDS011;52765;52.258;21.052;2024-03-06T16:12:42;22.67;;;7.30;;
65996;SDS011;52765;52.258;21.052;2024-03-06T16:16:43;17.00;;;6.90;;
65996;SDS011;52765;52.258;21.052;2024-03-06T16:20:46;24.90;;;7.78;;
65996;SDS011;52765;52.258;21.052;2024-03-06T16:24:48;15.57;;;7.60;;
65996;SDS011;52765;52.258;21.052;2024-03-06T16:28:48;21.30;;;7.15;;
65996;SDS011;52765;52.258;21.052;2024-03-06T16:32:49;17.70;;;7.03;;
65996;SDS011;52765;52.258;21.052;2024-03-06T16:36:50;16.23;;;6.70;;
65996;SDS011;52765;52.258;21.052;2024-03-06T16:40:53;15.85;;;6.75;;
65996;SDS011;52765;52.258;21.052;2024-03-06T16:44:54;18.75;;;7.18;;
65996;SDS011;52765;52.258;21.052;2024-03-06T16:48:54;16.45;;;7.10;;
65996;SDS011;52765;52.258;21.052;2024-03-06T16:52:55;24.52;;;8.70;;
65996;SDS011;52765;52.258;21.052;2024-03-06T16:56:56;21.48;;;8.73;;
65996;SDS011;52765;52.258;21.052;2024-03-06T17:00:57;35.40;;;13.38;;
65996;SDS011;52765;52.258;21.052;2024-03-06T17:04:58;31.80;;;9.52;;
65996;SDS011;52765;52.258;21.052;2024-03-06T17:08:58;26.55;;;9.13;;
65996;SDS011;52765;52.258;21.052;2024-03-06T17:12:59;20.88;;;7.43;;
65996;SDS011;52765;52.258;21.052;2024-03-06T17:17:00;18.75;;;7.25;;
65996;SDS011;52765;52.258;21.052;2024-03-06T17:21:02;29.27;;;7.70;;
65996;SDS011;52765;52.258;21.052;2024-03-06T17:25:04;13.90;;;7.32;;
65996;SDS011;52765;52.258;21.052;2024-03-06T17:29:05;20.33;;;7.80;;
65996;SDS011;52765;52.258;21.052;2024-03-06T17:33:07;21.52;;;7.80;;
65996;SDS011;52765;52.258;21.052;2024-03-06T17:37:16;17.40;;;7.68;;
65996;SDS011;52765;52.258;21.052;2024-03-06T17:41:17;20.67;;;7.85;;
65996;SDS011;52765;52.258;21.052;2024-03-06T17:45:17;21.88;;;8.80;;
65996;SDS011;52765;52.258;21.052;2024-03-06T17:49:21;20.85;;;8.23;;
65996;SDS011;52765;52.258;21.052;2024-03-06T17:53:21;23.13;;;9.50;;
65996;SDS011;52765;52.258;21.052;2024-03-06T17:57:22;18.77;;;7.50;;
65996;SDS011;52765;52.258;21.052;2024-03-06T18:01:28;20.67;;;8.40;;
65996;SDS011;52765;52.258;21.052;2024-03-06T18:05:30;21.20;;;7.85;;
65996;SDS011;52765;52.258;21.052;2024-03-06T18:09:34;22.83;;;9.40;;
65996;SDS011;52765;52.258;21.052;2024-03-06T18:13:34;22.13;;;8.80;;
65996;SDS011;52765;52.258;21.052;2024-03-06T18:17:35;21.95;;;10.73;;
65996;SDS011;52765;52.258;21.052;2024-03-06T18:21:42;23.50;;;10.65;;
65996;SDS011;52765;52.258;21.052;2024-03-06T18:25:43;22.92;;;9.68;;
65996;SDS011;52765;52.258;21.052;2024-03-06T18:29:44;24.50;;;8.50;;
65996;SDS011;52765;52.258;21.052;2024-03-06T18:33:56;28.58;;;9.70;;
65996;SDS011;52765;52.258;21.052;2024-03-06T18:37:57;30.02;;;8.82;;
65996;SDS011;52765;52.258;21.052;2024-03-06T18:41:57;19.13;;;8.35;;
65996;SDS011;52765;52.258;21.052;2024-03-06T18:45:58;16.77;;;7.47;;
65996;SDS011;52765;52.258;21.052;2024-03-06T18:49:59;28.90;;;8.48;;
65996;SDS011;52765;52.258;21.052;2024-03-06T18:54:01;16.75;;;8.40;;
65996;SDS011;52765;52.258;21.052;2024-03-06T18:58:04;18.75;;;9.70;;
65996;SDS011;52765;52.258;21.052;2024-03-06T19:02:08;25.65;;;9.23;;
65996;SDS011;52765;52.258;21.052;2024-03-06T19:06:10;29.85;;;9.68;;
65996;SDS011;52765;52.258;21.052;2024-03-06T19:10:14;21.90;;;9.45;;
65996;SDS011;52765;52.258;21.052;2024-03-06T19:14:15;26.65;;;11.05;;
65996;SDS011;52765;52.258;21.052;2024-03-06T19:18:15;28.40;;;12.30;;
65996;SDS011;52765;52.258;21.052;2024-03-06T19:22:17;31.10;;;13.40;;
65996;SDS011;52765;52.258;21.052;2024-03-06T19:26:23;30.27;;;12.53;;
65996;SDS011;52765;52.258;21.052;2024-03-06T19:30:23;27.13;;;13.02;;
65996;SDS011;52765;52.258;21.052;2024-03-06T19:34:24;35.35;;;14.45;;
65996;SDS011;52765;52.258;21.052;2024-03-06T19:38:24;35.17;;;14.10;;
65996;SDS011;52765;52.258;21.052;2024-03-06T19:42:25;39.45;;;13.65;;
65996;SDS011;52765;52.258;21.052;2024-03-06T19:46:26;31.80;;;14.80;;
65996;SDS011;52765;52.258;21.052;2024-03-06T19:50:26;35.28;;;16.25;;
65996;SDS011;52765;52.258;21.052;2024-03-06T19:54:30;40.78;;;15.80;;
65996;SDS011;52765;52.258;21.052;2024-03-06T19:58:32;41.30;;;15.88;;
65996;SDS011;52765;52.258;21.052;2024-03-06T20:02:34;38.60;;;17.25;;
65996;SDS011;52765;52.258;21.052;2024-03-06T20:06:34;39.45;;;15.98;;
65996;SDS011;52765;52.258;21.052;2024-03-06T20:10:35;35.85;;;14.13;;
65996;SDS011;52765;52.258;21.052;2024-03-06T20:14:36;45.22;;;17.85;;
65996;SDS011;52765;52.258;21.052;2024-03-06T20:18:37;32.95;;;13.52;;
65996;SDS011;52765;52.258;21.052;2024-03-06T20:22:40;37.53;;;14.25;;
65996;SDS011;52765;52.258;21.052;2024-03-06T20:26:44;35.95;;;14.23;;
65996;SDS011;52765;52.258;21.052;2024-03-06T20:30:44;35.70;;;12.70;;
65996;SDS011;52765;52.258;21.052;2024-03-06T20:34:46;28.40;;;12.85;;
65996;SDS011;52765;52.258;21.052;2024-03-06T20:38:48;27.38;;;13.35;;
65996;SDS011;52765;52.258;21.052;2024-03-06T20:42:48;30.02;;;13.20;;
65996;SDS011;52765;52.258;21.052;2024-03-06T20:46:49;23.92;;;11.57;;
65996;SDS011;52765;52.258;21.052;2024-03-06T20:50:49;26.38;;;12.43;;
65996;SDS011;52765;52.258;21.052;2024-03-06T20:54:50;26.00;;;12.15;;
65996;SDS011;52765;52.258;21.052;2024-03-06T20:58:51;27.60;;;12.15;;
65996;SDS011;52765;52.258;21.052;2024-03-06T21:02:52;29.63;;;13.00;;
65996;SDS011;52765;52.258;21.052;2024-03-06T21:06:53;26.27;;;11.75;;
65996;SDS011;52765;52.258;21.052;2024-03-06T21:10:54;28.05;;;11.93;;
65996;SDS011;52765;52.258;21.052;2024-03-06T21:14:55;25.35;;;11.48;;
65996;SDS011;52765;52.258;21.052;2024-03-06T21:18:58;27.25;;;12.23;;
65996;SDS011;52765;52.258;21.052;2024-03-06T21:22:58;25.67;;;12.07;;
65996;SDS011;52765;52.258;21.052;2024-03-06T21:27:00;28.42;;;11.82;;
65996;SDS011;52765;52.258;21.052;2024-03-06T21:31:02;28.15;;;13.05;;
65996;SDS011;52765;52.258;21.052;2024-03-06T21:35:04;23.08;;;11.57;;
65996;SDS011;52765;52.258;21.052;2024-03-06T21:39:05;27.42;;;11.60;;
65996;SDS011;52765;52.258;21.052;2024-03-06T21:43:08;23.40;;;11.25;;
65996;SDS011;52765;52.258;21.052;2024-03-06T21:47:08;22.95;;;11.40;;
65996;SDS011;52765;52.258;21.052;2024-03-06T21:51:09;24.83;;;11.95;;
65996;SDS011;52765;52.258;21.052;2024-03-06T21:55:10;24.20;;;10.65;;
65996;SDS011;52765;52.258;21.052;2024-03-06T21:59:11;23.58;;;11.38;;
65996;SDS011;52765;52.258;21.052;2024-03-06T22:03:11;21.95;;;11.40;;
65996;SDS011;52765;52.258;21.052;2024-03-06T22:07:12;24.05;;;11.52;;
65996;SDS011;52765;52.258;21.052;2024-03-06T22:11:12;25.17;;;11.20;;
65996;SDS011;52765;52.258;21.052;2024-03-06T22:15:12;23.77;;;10.52;;
65996;SDS011;52765;52.258;21.052;2024-03-06T22:19:13;21.58;;;10.73;;
65996;SDS011;52765;52.258;21.052;2024-03-06T22:23:14;26.05;;;11.63;;
65996;SDS011;52765;52.258;21.052;2024-03-06T22:27:14;23.10;;;11.68;;
65996;SDS011;52765;52.258;21.052;2024-03-06T22:31:15;24.10;;;10.80;;
65996;SDS011;52765;52.258;21.052;2024-03-06T22:35:17;28.15;;;10.93;;
65996;SDS011;52765;52.258;21.052;2024-03-06T22:39:17;24.55;;;11.23;;
65996;SDS011;52765;52.258;21.052;2024-03-06T22:43:18;29.10;;;11.25;;
65996;SDS011;52765;52.258;21.052;2024-03-06T22:47:19;24.33;;;9.88;;
65996;SDS011;52765;52.258;21.052;2024-03-06T22:51:20;24.90;;;10.85;;
65996;SDS011;52765;52.258;21.052;2024-03-06T22:55:20;26.50;;;12.45;;
65996;SDS011;52765;52.258;21.052;2024-03-06T22:59:21;25.13;;;12.20;;
65996;SDS011;52765;52.258;21.052;2024-03-06T23:03:23;27.20;;;11.80;;
65996;SDS011;52765;52.258;21.052;2024-03-06T23:07:23;24.20;;;10.88;;
65996;SDS011;52765;52.258;21.052;2024-03-06T23:11:24;27.15;;;12.13;;
65996;SDS011;52765;52.258;21.052;2024-03-06T23:15:24;24.70;;;12.20;;
65996;SDS011;52765;52.258;21.052;2024-03-06T23:19:26;23.23;;;10.45;;
65996;SDS011;52765;52.258;21.052;2024-03-06T23:23:26;23.33;;;10.70;;
65996;SDS011;52765;52.258;21.052;2024-03-06T23:27:27;25.60;;;11.65;;